x

Middle Nomad (46004) Wave Buoy

3:00am - Sat 27th Aug 2016 All times are PDT. -7 hours from GMT.

  • Sig Wave height 7.5ft
  • Peak Period 8s
  • Wind
    18mph, 22mph gusts
  • Sea Temp 62°f
  • Air Temp 60°f
  • Sea Pressure 1019.8mb
  • Middle Nomad
  • Middle Nomad

More Historic Weather Station data

Upgrade to MSW Pro to gain access to the past 30 days of data for over 8000 Wavebouys and Weather Stations around the globe.

Join Pro

Comparision Forecast

View Surf forecast
   
Sat 08/27 3:00am 7.5ft 8s 18 22 mph 1019.8mb 62f 60f
2:00am 7.5ft 7s 18 22 mph 1019.9mb 62f 61f
1:00am 8ft 7s 18 22 mph 1020.2mb 62f 61f
12:00am 8ft 8s 20 22 mph 1020.5mb 62f 61f
Fri 08/26 11:00pm 8ft 8s 20 25 mph 1020.7mb 62f 61f
10:00pm 7ft 7s 22 27 mph 1021.1mb 62f 61f
9:00pm 7ft 7s 22 27 mph 1021.3mb 62f 61f
8:00pm 7ft 7s 20 25 mph 1021.7mb 62f 61f
7:00pm 6.5ft 7s 25 29 mph 1022mb 62f 61f
6:00pm 6.5ft 6s 22 29 mph 1022.5mb 62f 61f
5:00pm  -   -  20
mph
- - -
4:00pm 7ft 7s 20 25 mph 1023.8mb 62f 61f
3:00pm 6.5ft 6s 20 27 mph 1024.2mb 62f 62f
2:00pm 6.5ft 6s 22 27 mph 1024.7mb 62f 61f
1:00pm 6ft 6s 20 25 mph 1025mb 62f 61f
12:00pm 6ft 6s 20 25 mph 1025.4mb 62f 61f
11:00am 6ft 5s 20 25 mph 1025.8mb 62f 61f
10:00am 5ft 5s 22 27 mph 1025.8mb 62f 61f
9:00am 5ft 6s 22 27 mph 1026.2mb 62f 61f
8:00am 4.5ft 5s 20 25 mph 1026.5mb 62f 62f
7:00am 4.5ft 5s 18 20 mph 1026.8mb 62f 62f
6:00am 5ft 6s 18 20 mph 1027.2mb 62f 61f
5:00am 5ft 6s 18 22 mph 1027.6mb 62f 61f
4:00am 6ft 5s 18 22 mph 1028mb 62f 61f
3:00am 6ft 6s 20 25 mph 1028.4mb 62f 61f
2:00am 6ft 6s 22 27 mph 1028.8mb 62f 61f
1:00am 6ft 7s 22 27 mph 1029.4mb 62f 61f
12:00am 6.5ft 6s 18 22 mph 1029.9mb 62f 62f
Thu 08/25 11:00pm 6.5ft 7s 20 25 mph 1030.4mb 62f 61f
10:00pm 6.5ft 7s 20 27 mph 1030.6mb 62f 62f
9:00pm 6.5ft 6s 22 27 mph 1031mb 62f 62f
8:00pm 6ft 6s 20 25 mph 1031.3mb 62f 61f
7:00pm 6ft 6s 25 31 mph 1031.4mb 62f 61f
6:00pm 6ft 6s 22 27 mph 1031.6mb 62f 61f
5:00pm 6.5ft 6s 22 27 mph 1032.2mb 62f 61f
4:00pm 6.5ft 6s 22 27 mph 1032.5mb 62f 61f
3:00pm 7ft 6s 22 27 mph 1033mb 62f 61f
2:00pm 6.5ft 6s 22 27 mph 1033.4mb 62f 61f
1:00pm 6ft 6s 22 27 mph 1034mb 62f 61f
12:00pm 6ft 6s 20 27 mph 1034.3mb 62f 61f
11:00am 6ft 5s 20 22 mph 1034.5mb 62f 61f
10:00am 5.5ft 5s 22 25 mph 1034.7mb 62f 60f
9:00am 6ft 5s 18 22 mph 1035mb 62f 61f
8:00am 5ft 5s 22 27 mph 1035mb 62f 62f
7:00am 5ft 7s 20 25 mph 1035.2mb 62f 62f
6:00am 5ft 7s 22 27 mph 1035.3mb 62f 61f
5:00am 5ft 5s 16 20 mph 1035.7mb 62f 62f
4:00am 5.5ft 5s 18 20 mph 1035.9mb 62f 62f
3:00am 5.5ft 5s 20 22 mph 1036.3mb 62f 62f
2:00am 5.5ft 7s 18 20 mph 1036.5mb 62f 61f
1:00am 5.5ft 9s 20 25 mph 1036.6mb 62f 61f
12:00am 5.5ft 8s 20 25 mph 1036.7mb 62f 60f
Wed 08/24 11:00pm 5ft 5s 20 25 mph 1036.8mb 62f 59f
10:00pm 5.5ft 9s 18 22 mph 1036.9mb 62f 59f
9:00pm 5ft 9s 20 25 mph 1036.7mb 62f 59f
8:00pm 5ft 9s 18 22 mph 1036.5mb 62f 59f
7:00pm 5ft 8s 18 22 mph 1036.4mb 62f 59f
6:00pm 4.5ft 9s 18 22 mph 1036.7mb 62f 59f
5:00pm 4.5ft 9s 18 22 mph 1036.8mb 62f 59f
4:00pm 4.5ft 9s 16 20 mph 1037.2mb 62f 59f
3:00pm 5ft 9s 16 20 mph 1037.5mb 62f 59f
2:00pm 5ft 9s 16 20 mph 1037.6mb 62f 59f
1:00pm 5ft 9s 11 16 mph 1037.8mb 62f 59f
12:00pm 5ft 9s 13 18 mph 1037.7mb 62f 59f
11:00am 5ft 9s 13 16 mph 1037.4mb 62f 58f
10:00am 5ft 9s 11 16 mph 1037mb 62f 58f
9:00am 4.5ft 9s 13 18 mph 1036.6mb 62f 58f
8:00am 4.5ft 9s 13 16 mph 1036.3mb 62f 58f
7:00am 4.5ft 10s 13 16 mph 1036.1mb 62f 57f
6:00am 5ft 9s 13 18 mph 1035.9mb 62f 57f
5:00am 4.5ft 10s 13 16 mph 1035.4mb 62f 57f
4:00am 5ft 10s 11 16 mph 1035.3mb 62f 57f
3:00am 5ft 10s 9 13 mph 1035mb 62f 57f
2:00am 5ft 10s 9 11 mph 1034.8mb 62f 58f
1:00am 5ft 10s 9 13 mph 1034.6mb 62f 58f
12:00am 5ft 10s 9 11 mph 1034.4mb 62f 58f
Tue 08/23 11:00pm 5ft 10s 9 11 mph 1034mb 62f 58f
10:00pm 4.5ft 10s 7 9 mph 1033.7mb 62f 58f
9:00pm 4.5ft 10s 7 9 mph 1033.4mb 62f 58f
8:00pm 4.5ft 10s 7 9 mph 1033mb 62f 58f
7:00pm 4.5ft 14s 7 9 mph 1032.6mb 62f 59f
6:00pm 4ft 10s 7 9 mph 1032.2mb 62f 59f
5:00pm 3.5ft 16s 7 9 mph 1032mb 62f 59f
4:00pm 3.5ft 16s 7 9 mph 1032mb 62f 59f
3:00pm 3.5ft 14s 7 9 mph 1031.7mb 62f 59f
2:00pm 4ft 16s 7
mph
1031.4mb 62f 59f
1:00pm 3.5ft 17s 9
mph
1031.2mb 62f 58f
12:00pm 3.5ft 16s 9
mph
1030.9mb 62f 58f